• Join FlightAware (Why Join?)
  • Login
  • US Flag 
09:32AM EST


 

Airport Tracker/Info


-or-


 

Live Flight TrackerFlight Track Log ✈ CXA8231 ✈ 07-Mar-2014 ✈ ZSHC / HGH - ZSJN / TNA

Flight Track Log - Related Links

Times and Time Zones

All times are in EST time to prevent confusion due to time zone crossing. See the CXA8231 flight status page for this flight to view local times or setup timezone preferences in your user account.

Time Position Orientation Groundspeed Altitude Reporting Facility
EST Latitude Longitude Course Direction KTS MPH feet Rate Location/Type
08:14PM 31.2452 119.9714 339° North  Level Estimated
08:15PM 31.3376 119.9290 339° North  Level Estimated
08:16PM 31.4299 119.8866 339° North  Level Estimated
08:17PM 31.5223 119.8441 339° North  Level Estimated
08:18PM 31.6146 119.8015 339° North  Level Estimated
08:19PM 31.7069 119.7588 339° North  Level Estimated
08:20PM 31.7992 119.7161 339° North  Level Estimated
08:21PM 31.8915 119.6732 338° Northwest  Level Estimated
08:22PM 31.9837 119.6303 338° Northwest  Level Estimated
08:23PM 32.0760 119.5873 338° Northwest  Level Estimated
08:24PM 32.1682 119.5442 338° Northwest  Level Estimated
08:25PM 32.2604 119.5010 338° Northwest  Level Estimated
08:26PM 32.3527 119.4577 338° Northwest  Level Estimated
08:27PM 32.4449 119.4144 338° Northwest  Level Estimated
08:28PM 32.5370 119.3709 338° Northwest  Level Estimated
08:29PM 32.6292 119.3274 338° Northwest  Level Estimated
08:30PM 32.7213 119.2838 338° Northwest  Level Estimated
08:31PM 32.8135 119.2400 338° Northwest  Level Estimated
08:32PM 32.9056 119.1962 338° Northwest  Level Estimated
08:33PM 32.9977 119.1523 338° Northwest  Level Estimated
08:34PM 33.0898 119.1083 338° Northwest  Level Estimated
08:35PM 33.1818 119.0642 338° Northwest  Level Estimated
08:36PM 33.2739 119.0201 338° Northwest  Level Estimated
08:37PM 33.3659 118.9758 338° Northwest  Level Estimated
08:38PM 33.4580 118.9314 338° Northwest  Level Estimated
08:39PM 33.5500 118.8869 338° Northwest  Level Estimated
08:40PM 33.6419 118.8424 338° Northwest  Level Estimated
08:41PM 33.7339 118.7978 338° Northwest  Level Estimated
08:42PM 33.8259 118.7530 338° Northwest  Level Estimated
08:43PM 33.9178 118.7082 338° Northwest  Level Estimated
08:44PM 34.0098 118.6632 338° Northwest  Level Estimated
08:45PM 34.1017 118.6182 338° Northwest  Level Estimated
08:46PM 34.1936 118.5730 338° Northwest  Level Estimated
08:47PM 34.2854 118.5278 338° Northwest  Level Estimated
08:48PM 34.3773 118.4825 338° Northwest  Level Estimated
08:49PM 34.4691 118.4370 338° Northwest  Level Estimated
08:50PM 34.5610 118.3915 338° Northwest  Level Estimated
08:51PM 34.6528 118.3459 338° Northwest  Level Estimated
08:52PM 34.7446 118.3001 338° Northwest  Level Estimated
08:53PM 34.8363 118.2543 338° Northwest  Level Estimated
08:54PM 34.9281 118.2084 338° Northwest  Level Estimated
08:55PM 35.0199 118.1623 338° Northwest  Level Estimated
08:56PM 35.1116 118.1162 338° Northwest  Level Estimated
08:57PM 35.2033 118.0699 338° Northwest  Level Estimated
08:58PM 35.2950 118.0236 338° Northwest  Level Estimated
08:59PM 35.3866 117.9771 338° Northwest  Level Estimated
09:00PM 35.4783 117.9305 338° Northwest  Level Estimated
09:01PM 35.5699 117.8839 337° Northwest  Level Estimated
09:02PM 35.6615 117.8371 337° Northwest  Level Estimated
09:03PM 35.7531 117.7902 337° Northwest  Level Estimated
09:04PM 35.8447 117.7432 337° Northwest  Level Estimated
09:05PM 35.9363 117.6961 337° Northwest  Level Estimated
09:06PM 36.0278 117.6489 337° Northwest  Level Estimated
09:07PM 36.1194 117.6016 337° Northwest  Level Estimated
09:08PM 36.2109 117.5542 337° Northwest  Level Estimated
09:09PM 36.3023 117.5066 337° Northwest  Level Estimated
09:10PM 36.3938 117.4590 337° Northwest  Level Estimated
09:11PM 36.4853 117.4112 337° Northwest  Level Estimated
09:12PM 36.5767 117.3633 337° Northwest  Level Estimated
09:13PM 36.6681 117.3153 337° Northwest  Level Estimated
09:14PM 36.7595 117.2672 337° Northwest  Level Estimated
09:15PM 36.8509 117.2190 337° Northwest  Level Estimated
09:16PM 36.8566 117.2160 337° Northwest  Level Estimated
09:17PM 36.8566 117.2160 North  Level Estimated
09:18PM 36.8566 117.2160 North  Level Estimated
09:19PM 36.8566 117.2160 North  Level Estimated
09:20PM 36.8566 117.2160 North  Level Estimated
09:21PM 36.8566 117.2160 North  Level Estimated
09:22PM 36.8566 117.2160 North  Level Estimated
09:23PM 36.8566 117.2160 North  Level Estimated
09:24PM 36.8566 117.2160 North  Level Estimated
09:25PM 36.8566 117.2160 North  Level Estimated
09:26PM 36.8566 117.2160 North  Level Estimated
09:27PM 36.8566 117.2160 North  Level Estimated
09:28PM 36.8566 117.2160 North  Level Estimated
09:29PM 36.8566 117.2160 North  Level Estimated
09:30PM 36.8566 117.2160 North  Level Estimated
09:31PM 36.8566 117.2160 North  Level Estimated